Time;durP1;ratioP1;P1;durP2;ratioP2;P2;SDS_P1;SDS_P2;PMS_P1;PMS_P2;Temp;Humidity;BMP_temperature;BMP_pressure;BME280_temperature;BME280_humidity;BME280_pressure;Samples;Min_cycle;Max_cycle;Signal;HPM_P1;HPM_P2
2022/09/28 00:01:30;;;;;;;12.37;10.20;;;;;;;13.47;100.00;98788.13;1496242;87;21538;-77
2022/09/28 00:03:57;;;;;;;15.60;11.43;;;;;;;13.44;100.00;98785.89;1474361;88;22440;-77
2022/09/28 00:06:25;;;;;;;16.43;13.37;;;;;;;13.44;100.00;98787.22;1477551;88;21520;-76
2022/09/28 00:08:51;;;;;;;19.87;16.07;;;;;;;13.42;100.00;98797.74;1471497;88;22167;-74
2022/09/28 00:11:20;;;;;;;18.03;14.27;;;;;;;13.39;100.00;98811.44;1471254;88;21987;-76
2022/09/28 00:13:52;;;;;;;19.37;14.63;;;;;;;13.37;100.00;98807.65;1469064;87;21412;-77
2022/09/28 00:16:22;;;;;;;20.77;16.13;;;;;;;13.37;100.00;98796.20;1443857;89;22359;-77
2022/09/28 00:18:51;;;;;;;22.70;16.77;;;;;;;13.34;100.00;98782.82;1497819;87;21360;-78
2022/09/28 00:21:21;;;;;;;23.00;16.50;;;;;;;13.36;100.00;98794.58;1484199;87;21410;-78
2022/09/28 00:26:59;;;;;;;20.00;15.97;;;;;;;13.37;100.00;98787.72;1495933;87;21634;-78
2022/09/28 00:29:25;;;;;;;20.87;16.87;;;;;;;13.39;100.00;98785.68;1435255;90;21637;-78
2022/09/28 00:31:58;;;;;;;36.57;17.47;;;;;;;13.39;100.00;98776.91;1469501;88;21515;-78
2022/09/28 00:34:26;;;;;;;19.70;16.53;;;;;;;13.38;100.00;98778.75;1477253;88;21451;-77
2022/09/28 00:36:52;;;;;;;24.07;17.87;;;;;;;13.37;100.00;98773.11;1477646;88;21481;-77
2022/09/28 00:39:18;;;;;;;26.07;19.47;;;;;;;13.35;100.00;98768.53;1473463;88;21414;-77
2022/09/28 00:41:46;;;;;;;24.37;19.60;;;;;;;13.34;100.00;98772.70;1473983;88;21384;-77
2022/09/28 00:44:33;;;;;;;26.40;20.10;;;;;;;13.31;100.00;98777.92;1471293;87;21810;-77
2022/09/28 00:47:50;;;;;;;23.10;18.77;;;;;;;13.29;100.00;98785.27;1480215;88;21537;-76
2022/09/28 00:50:31;;;;;;;23.60;19.13;;;;;;;13.27;100.00;98787.33;1482280;88;22233;-78
2022/09/28 00:53:12;;;;;;;;;;;;;;;13.27;100.00;98793.97;1475677;88;21838;-76
2022/09/28 00:55:53;;;;;;;27.98;21.07;;;;;;;13.24;100.00;98789.86;1477255;88;20758;-77
2022/09/28 00:58:27;;;;;;;30.17;22.80;;;;;;;13.25;100.00;98788.01;1471915;88;21943;-77
2022/09/28 01:00:56;;;;;;;29.10;21.97;;;;;;;13.26;100.00;98785.67;1472515;88;21515;-77
2022/09/28 01:03:27;;;;;;;26.67;19.87;;;;;;;13.26;100.00;98774.56;1472891;88;22396;-76
2022/09/28 01:05:58;;;;;;;29.33;22.20;;;;;;;13.27;100.00;98774.05;1465822;88;21514;-77
2022/09/28 01:08:28;;;;;;;;;;;;;;;13.29;100.00;98779.47;1471563;88;22335;-77
2022/09/28 01:10:58;;;;;;;29.48;21.42;;;;;;;13.28;100.00;98778.33;1474397;88;20817;-77
2022/09/28 01:13:24;;;;;;;31.30;23.63;;;;;;;13.25;100.00;98784.02;1470150;87;21696;-76
2022/09/28 01:16:29;;;;;;;24.43;19.93;;;;;;;13.27;100.00;98786.81;1479891;87;22364;-76
2022/09/28 01:19:26;;;;;;;28.77;20.47;;;;;;;13.31;100.00;98795.19;1477770;88;21463;-76
2022/09/28 01:22:04;;;;;;;28.93;20.17;;;;;;;13.30;100.00;98798.88;1490289;87;21603;-78
2022/09/28 01:24:50;;;;;;;27.57;20.77;;;;;;;13.31;100.00;98811.13;1485693;86;22423;-78
2022/09/28 01:27:49;;;;;;;28.10;22.23;;;;;;;13.30;100.00;98803.67;1498518;86;22246;-77
2022/09/28 01:30:18;;;;;;;31.20;22.10;;;;;;;13.27;100.00;98797.95;1492650;86;21396;-77
2022/09/28 01:32:50;;;;;;;26.13;20.90;;;;;;;13.25;100.00;98794.16;1499837;86;22400;-77
2022/09/28 01:35:46;;;;;;;25.73;19.97;;;;;;;13.26;100.00;98794.98;1458242;89;22409;-77
2022/09/28 01:38:27;;;;;;;28.70;19.30;;;;;;;13.25;100.00;98797.30;1458805;89;21666;-76
2022/09/28 01:40:54;;;;;;;24.90;19.57;;;;;;;13.25;100.00;98795.98;1454221;89;21619;-75
2022/09/28 01:43:29;;;;;;;23.37;17.63;;;;;;;13.27;100.00;98801.43;1447971;89;21575;-76
2022/09/28 01:46:12;;;;;;;24.27;17.00;;;;;;;13.28;100.00;98801.72;1464589;89;21557;-77
2022/09/28 01:48:56;;;;;;;20.03;15.27;;;;;;;13.28;100.00;98807.55;1456168;89;22517;-77
2022/09/28 01:51:36;;;;;;;17.13;14.13;;;;;;;13.25;100.00;98818.56;1462346;89;21545;-78
2022/09/28 01:54:06;;;;;;;;;;;;;;;13.20;100.00;98821.00;1428712;89;21477;-78
2022/09/28 01:56:50;;;;;;;20.40;13.80;;;;;;;13.14;100.00;98825.80;1451438;89;20300;-77
2022/09/28 01:59:20;;;;;;;17.20;12.20;;;;;;;13.09;100.00;98826.43;1460638;89;21574;-78
2022/09/28 02:01:58;;;;;;;27.30;13.80;;;;;;;13.04;100.00;98828.87;1449701;89;21583;-78
2022/09/28 02:04:30;;;;;;;15.07;11.00;;;;;;;12.99;100.00;98828.13;1449815;89;22441;-78
2022/09/28 02:07:07;;;;;;;14.47;11.30;;;;;;;12.96;100.00;98828.55;1456267;89;22566;-78
2022/09/28 02:09:39;;;;;;;11.87;9.03;;;;;;;12.93;100.00;98827.62;1459869;89;21642;-77
2022/09/28 02:12:10;;;;;;;14.97;7.93;;;;;;;12.89;100.00;98846.31;1446654;89;21449;-77
2022/09/28 02:14:39;;;;;;;11.40;8.70;;;;;;;12.84;100.00;98844.25;1456398;89;22381;-77
2022/09/28 02:17:06;;;;;;;13.67;7.30;;;;;;;12.79;100.00;98841.38;1448388;89;21434;-77
2022/09/28 02:19:34;;;;;;;7.87;5.97;;;;;;;12.74;100.00;98844.31;1443597;90;21353;-77
2022/09/28 02:22:14;;;;;;;8.13;6.13;;;;;;;12.67;100.00;98849.61;1440473;89;21509;-77
2022/09/28 02:24:49;;;;;;;9.90;5.47;;;;;;;12.58;100.00;98846.31;1476231;88;21427;-77
2022/09/28 02:27:39;;;;;;;6.10;4.60;;;;;;;12.49;100.00;98844.86;1472661;88;21478;-78
2022/09/28 02:30:07;;;;;;;6.30;3.77;;;;;;;12.44;100.00;98847.28;1474426;88;21309;-77
2022/09/28 02:32:39;;;;;;;8.70;4.47;;;;;;;12.32;100.00;98851.52;1480250;87;21309;-77
2022/09/28 02:35:15;;;;;;;6.87;3.33;;;;;;;12.24;100.00;98867.59;1494990;87;21382;-77
2022/09/28 02:37:42;;;;;;;4.03;3.10;;;;;;;12.17;100.00;98865.73;1494060;86;21287;-77
2022/09/28 02:40:30;;;;;;;5.73;3.23;;;;;;;12.10;100.00;98871.49;1451264;90;22359;-78
2022/09/28 02:43:20;;;;;;;3.97;3.00;;;;;;;12.04;100.00;98877.58;1505229;87;21382;-78
2022/09/28 02:46:24;;;;;;;6.30;3.67;;;;;;;11.96;100.00;98875.08;1472041;87;21323;-78
2022/09/28 02:49:35;;;;;;;6.63;2.93;;;;;;;11.89;100.00;98883.00;1477993;87;22082;-78
2022/09/28 02:52:26;;;;;;;6.30;3.33;;;;;;;11.82;100.00;98898.50;1492615;87;21404;-78
2022/09/28 02:55:24;;;;;;;6.27;3.90;;;;;;;11.73;100.00;98907.91;1445509;90;21398;-78
2022/09/28 02:58:10;;;;;;;6.57;3.60;;;;;;;11.68;100.00;98919.62;1495519;87;21419;-78
2022/09/28 03:00:50;;;;;;;6.77;3.33;;;;;;;11.62;100.00;98919.03;1443391;90;21562;-77
2022/09/28 03:03:58;;;;;;;5.03;4.08;;;;;;;11.56;100.00;98921.13;1472632;87;21383;-77
2022/09/28 03:06:32;;;;;;;10.67;4.90;;;;;;;11.50;100.00;98913.94;1439816;87;21448;-78
2022/09/28 03:09:06;;;;;;;7.00;4.67;;;;;;;11.45;100.00;98915.02;1489014;87;21308;-77
2022/09/28 03:11:44;;;;;;;7.60;3.67;;;;;;;11.40;100.00;98923.55;1472830;87;21354;-77
2022/09/28 03:14:11;;;;;;;5.37;3.03;;;;;;;11.34;100.00;98924.81;1476675;88;21501;-77
2022/09/28 03:16:37;;;;;;;4.90;3.40;;;;;;;11.29;100.00;98935.45;1469581;88;21353;-77
2022/09/28 03:19:03;;;;;;;4.47;3.00;;;;;;;11.26;100.00;98941.13;1471460;88;21502;-78
2022/09/28 03:21:29;;;;;;;7.03;3.50;;;;;;;11.21;100.00;98935.56;1494988;86;21434;-78
2022/09/28 03:23:55;;;;;;;6.97;3.10;;;;;;;11.20;100.00;98938.42;1489350;86;21448;-77
2022/09/28 03:26:21;;;;;;;3.43;2.90;;;;;;;11.18;100.00;98946.54;1504382;86;21367;-77
2022/09/28 03:28:47;;;;;;;13.67;2.60;;;;;;;11.17;100.00;98954.17;1503036;86;21412;-77
2022/09/28 03:31:13;;;;;;;6.30;2.27;;;;;;;11.16;100.00;98945.90;1477041;86;21331;-77
2022/09/28 03:33:40;;;;;;;2.80;2.27;;;;;;;11.18;100.00;98939.11;1460074;88;21375;-76
2022/09/28 03:36:08;;;;;;;4.53;3.00;;;;;;;11.12;100.00;98943.32;1485418;88;21369;-77
2022/09/28 03:38:34;;;;;;;6.67;3.77;;;;;;;11.08;100.00;98950.01;1480447;88;22061;-77
2022/09/28 03:41:00;;;;;;;3.60;3.00;;;;;;;11.02;100.00;98950.25;1478380;88;22296;-77
2022/09/28 03:43:28;;;;;;;7.70;3.93;;;;;;;10.98;100.00;98950.80;1481821;88;21545;-77
2022/09/28 03:45:59;;;;;;;6.90;3.40;;;;;;;10.95;100.00;98956.47;1476192;88;21442;-76
2022/09/28 03:48:28;;;;;;;7.97;3.15;;;;;;;10.96;100.00;98960.74;1480728;88;21405;-75
2022/09/28 03:50:56;;;;;;;4.70;2.90;;;;;;;10.97;100.00;98959.75;1477486;88;21434;-77
2022/09/28 03:53:24;;;;;;;3.13;2.33;;;;;;;10.96;100.00;98962.06;1478831;88;21558;-77
2022/09/28 03:55:52;;;;;;;8.23;3.50;;;;;;;10.99;100.00;98963.86;1477517;88;21317;-76
2022/09/28 03:58:22;;;;;;;6.87;2.90;;;;;;;11.00;100.00;98964.67;1478086;88;21558;-77
2022/09/28 04:00:49;;;;;;;4.95;2.33;;;;;;;11.00;100.00;98967.33;1478320;86;21323;-77
2022/09/28 04:03:15;;;;;;;10.30;3.27;;;;;;;10.97;100.00;98970.34;1480718;88;22458;-77
2022/09/28 04:05:49;;;;;;;4.57;3.03;;;;;;;10.95;100.00;98977.64;1474885;88;21438;-77
2022/09/28 04:08:15;;;;;;;3.60;2.67;;;;;;;10.92;100.00;98981.98;1478016;86;22475;-78
2022/09/28 04:10:41;;;;;;;4.63;2.83;;;;;;;10.91;100.00;98976.38;1475284;88;21449;-77
2022/09/28 04:13:07;;;;;;;2.97;2.60;;;;;;;10.89;100.00;98969.94;1483393;88;21286;-77
2022/09/28 04:15:34;;;;;;;5.30;2.40;;;;;;;10.88;100.00;98980.73;1489976;86;21354;-79
2022/09/28 04:18:00;;;;;;;5.17;3.00;;;;;;;10.87;100.00;98967.97;1474339;88;21428;-78
2022/09/28 04:20:26;;;;;;;4.10;2.67;;;;;;;10.87;100.00;98966.64;1483634;88;21592;-77
2022/09/28 04:22:52;;;;;;;7.13;2.67;;;;;;;10.88;100.00;98964.84;1472450;88;21258;-78
2022/09/28 04:25:18;;;;;;;5.53;2.97;;;;;;;10.89;100.00;98967.80;1470946;87;21473;-79
2022/09/28 04:30:28;;;;;;;8.60;4.60;;;;;;;10.89;100.00;98969.12;1475308;87;21631;-78
2022/09/28 04:32:54;;;;;;;5.93;2.50;;;;;;;10.87;100.00;98984.36;1483784;87;21236;-78
2022/09/28 04:35:20;;;;;;;3.60;2.73;;;;;;;10.85;100.00;98988.53;1471950;87;21475;-80
2022/09/28 04:37:46;;;;;;;3.23;2.70;;;;;;;10.86;100.00;98990.67;1481701;87;21324;-78
2022/09/28 04:40:13;;;;;;;5.03;3.30;;;;;;;10.86;100.00;98981.41;1438386;91;21406;-78
2022/09/28 04:42:39;;;;;;;4.10;3.03;;;;;;;10.88;100.00;98984.70;1486268;88;21478;-77
2022/09/28 04:45:06;;;;;;;5.27;3.83;;;;;;;10.88;100.00;98988.66;1474969;88;21411;-78
2022/09/28 04:47:32;;;;;;;7.03;4.33;;;;;;;10.89;100.00;98979.70;1473372;87;22040;-78
2022/09/28 04:49:58;;;;;;;6.50;4.73;;;;;;;10.90;100.00;98980.02;1466546;88;22441;-79
2022/09/28 04:52:26;;;;;;;7.33;5.00;;;;;;;10.88;100.00;98977.57;1471421;87;21537;-78
2022/09/28 04:54:52;;;;;;;9.70;4.50;;;;;;;10.86;100.00;98976.11;1467351;87;21501;-79
2022/09/28 04:57:18;;;;;;;6.03;4.07;;;;;;;10.86;100.00;98989.34;1478738;87;22300;-79
2022/09/28 04:59:44;;;;;;;3.80;3.10;;;;;;;10.83;100.00;98995.82;1464786;87;21318;-78
2022/09/28 05:02:13;;;;;;;8.07;3.40;;;;;;;10.83;100.00;98996.64;1480489;88;21365;-78
2022/09/28 05:04:38;;;;;;;6.20;3.77;;;;;;;10.88;100.00;98997.93;1474823;88;21572;-78
2022/09/28 05:07:04;;;;;;;9.50;5.13;;;;;;;10.92;100.00;98999.19;1468430;87;23201;-79
2022/09/28 05:09:30;;;;;;;9.00;5.17;;;;;;;10.98;100.00;98991.32;1474982;88;21338;-80
2022/09/28 05:11:56;;;;;;;10.43;6.13;;;;;;;11.05;100.00;98992.74;1467380;87;21352;-79
2022/09/28 05:14:23;;;;;;;6.53;4.03;;;;;;;11.08;100.00;99001.64;1471989;88;21478;-79
2022/09/28 05:16:49;;;;;;;11.33;3.93;;;;;;;11.12;100.00;98998.92;1426819;91;21502;-80
2022/09/28 05:19:15;;;;;;;9.13;3.73;;;;;;;11.19;100.00;99005.61;1473631;88;21412;-78
2022/09/28 05:21:45;;;;;;;9.70;5.03;;;;;;;11.21;100.00;99012.37;1476491;88;21367;-78
2022/09/28 05:24:12;;;;;;;12.60;5.20;;;;;;;11.27;100.00;99014.78;1424017;91;21568;-78
2022/09/28 05:26:38;;;;;;;10.80;3.80;;;;;;;11.32;100.00;99020.84;1475601;88;21545;-79
2022/09/28 05:29:04;;;;;;;14.53;6.53;;;;;;;11.39;100.00;99027.03;1469190;88;21670;-78
2022/09/28 05:31:31;;;;;;;7.10;4.90;;;;;;;11.42;100.00;99036.77;1425230;91;21502;-78
2022/09/28 05:33:57;;;;;;;11.23;5.60;;;;;;;11.44;100.00;99040.54;1480266;88;21532;-78
2022/09/28 05:36:28;;;;;;;7.33;5.37;;;;;;;11.44;100.00;99042.68;1447012;88;22345;-77
2022/09/28 05:38:51;;;;;;;8.93;4.87;;;;;;;11.41;100.00;99040.92;1475568;88;21669;-77
2022/09/28 05:41:17;;;;;;;5.57;4.50;;;;;;;11.39;100.00;99038.44;1476791;88;22403;-78
2022/09/28 05:43:44;;;;;;;6.83;4.83;;;;;;;11.33;100.00;99045.81;1465457;88;21316;-77
2022/09/28 05:46:11;;;;;;;8.50;4.50;;;;;;;11.32;100.00;99042.04;1430936;91;22152;-79
2022/09/28 05:48:37;;;;;;;8.67;5.10;;;;;;;11.33;100.00;99045.81;1478195;88;21390;-78
2022/09/28 05:51:03;;;;;;;6.70;4.27;;;;;;;11.36;100.00;99057.87;1427892;90;21427;-78
2022/09/28 05:53:29;;;;;;;14.07;4.73;;;;;;;11.35;100.00;99050.94;1474550;87;21508;-77
2022/09/28 05:55:58;;;;;;;5.60;5.00;;;;;;;11.36;100.00;99048.09;1474699;87;21456;-76
2022/09/28 05:58:24;;;;;;;12.30;5.47;;;;;;;11.36;100.00;99043.30;1475357;88;21360;-76
2022/09/28 06:00:55;;;;;;;5.10;4.00;;;;;;;11.41;100.00;99038.27;1474691;87;21360;-76
2022/09/28 06:03:21;;;;;;;5.83;4.45;;;;;;;11.45;100.00;99041.69;1475669;87;21348;-77
2022/09/28 06:05:47;;;;;;;5.93;4.23;;;;;;;11.46;100.00;99043.83;1474323;87;21390;-77
2022/09/28 06:08:13;;;;;;;7.77;4.23;;;;;;;11.48;100.00;99047.13;1472087;85;21413;-76
2022/09/28 06:10:40;;;;;;;7.70;4.37;;;;;;;11.49;100.00;99050.89;1425777;91;21438;-77
2022/09/28 06:13:09;;;;;;;5.53;4.40;;;;;;;11.52;100.00;99048.37;1417953;91;22340;-77
2022/09/28 06:15:36;;;;;;;4.70;4.20;;;;;;;11.54;100.00;99054.32;1421743;91;22331;-78
2022/09/28 06:18:06;;;;;;;5.30;4.50;;;;;;;11.52;100.00;99065.60;1416937;91;21474;-77
2022/09/28 06:20:35;;;;;;;;;;;;;;;11.52;100.00;99061.63;1416639;91;22207;-77
2022/09/28 06:23:01;;;;;;;5.90;4.30;;;;;;;11.49;100.00;99062.00;1417953;91;21116;-76
2022/09/28 06:25:28;;;;;;;6.80;4.43;;;;;;;11.49;100.00;99064.66;1423827;91;21423;-77
2022/09/28 06:28:04;;;;;;;8.70;4.67;;;;;;;11.49;100.00;99072.60;1418532;91;22347;-76
2022/09/28 06:30:33;;;;;;;4.70;4.20;;;;;;;11.50;100.00;99064.95;1352053;92;21479;-77
2022/09/28 06:33:01;;;;;;;5.80;4.70;;;;;;;11.53;100.00;99068.56;1351508;92;21424;-75
2022/09/28 06:35:29;;;;;;;5.60;4.27;;;;;;;11.52;100.00;99066.42;1351015;92;21395;-77
2022/09/28 06:37:57;;;;;;;5.27;4.00;;;;;;;11.53;100.00;99081.80;1333928;92;22268;-77
2022/09/28 06:40:23;;;;;;;6.90;4.97;;;;;;;11.56;100.00;99084.59;1356728;91;21416;-78
2022/09/28 06:43:10;;;;;;;5.07;3.33;;;;;;;11.60;100.00;99091.99;1358858;91;21438;-78
2022/09/28 06:45:33;;;;;;;23.60;13.00;;;;;;;11.71;100.00;99080.91;1351115;92;21320;-78
2022/09/28 06:48:01;;;;;;;11.80;5.40;;;;;;;11.94;100.00;99078.63;1352632;91;21276;-79
2022/09/28 06:50:36;;;;;;;6.67;5.00;;;;;;;12.06;100.00;99082.41;1337703;91;21463;-79
2022/09/28 06:53:05;;;;;;;12.80;4.77;;;;;;;12.05;97.85;99084.72;1506157;89;21327;-78
2022/09/28 06:55:32;;;;;;;9.97;3.63;;;;;;;11.97;97.08;99094.15;1356281;91;21232;-76
2022/09/28 06:58:04;;;;;;;8.63;4.47;;;;;;;11.91;96.31;99092.23;1502723;91;21203;-76
2022/09/28 07:00:34;;;;;;;6.47;4.10;;;;;;;11.82;96.14;99088.03;1349946;91;21216;-77
2022/09/28 07:03:08;;;;;;;5.47;4.50;;;;;;;11.81;96.53;99083.75;1497350;91;21319;-77
2022/09/28 07:05:37;;;;;;;6.60;3.90;;;;;;;11.88;97.68;99087.30;1422048;91;21439;-76
2022/09/28 07:08:04;;;;;;;5.73;3.63;;;;;;;12.01;97.31;99101.22;1357676;91;21394;-77
2022/09/28 07:10:31;;;;;;;8.73;4.23;;;;;;;11.99;96.01;99105.37;1388857;91;21394;-77
2022/09/28 07:13:03;;;;;;;8.53;3.67;;;;;;;11.95;95.55;99096.16;1348369;91;21386;-77
2022/09/28 07:15:31;;;;;;;6.17;3.27;;;;;;;12.02;96.13;99098.36;1497878;91;21423;-77
2022/09/28 07:17:58;;;;;;;5.50;3.13;;;;;;;12.08;96.34;99105.55;1352991;92;21365;-77
2022/09/28 07:20:25;;;;;;;3.83;2.80;;;;;;;12.16;95.72;99113.39;1340162;91;21299;-75
2022/09/28 07:22:55;;;;;;;5.80;2.70;;;;;;;12.22;94.51;99109.66;1503940;91;22099;-77
2022/09/28 07:25:22;;;;;;;5.70;3.60;;;;;;;12.32;94.12;99112.83;1436638;91;21342;-77
2022/09/28 07:27:49;;;;;;;4.87;2.80;;;;;;;12.44;93.54;99108.64;1393913;91;22266;-78
2022/09/28 07:30:16;;;;;;;13.07;3.10;;;;;;;12.58;93.75;99098.45;1434851;91;21519;-77
2022/09/28 07:32:44;;;;;;;5.53;2.60;;;;;;;12.72;92.52;99102.02;1436533;91;21370;-77
2022/09/28 07:35:10;;;;;;;3.33;2.53;;;;;;;12.83;91.68;99112.59;1431266;91;22457;-77
2022/09/28 07:37:37;;;;;;;7.43;3.00;;;;;;;12.97;90.43;99123.61;1431231;91;21495;-78
2022/09/28 07:42:51;;;;;;;6.73;3.03;;;;;;;13.20;90.09;99119.35;1431451;91;22448;-77
2022/09/28 07:45:23;;;;;;;6.33;3.40;;;;;;;13.36;89.35;99128.88;1433592;91;21394;-78
2022/09/28 07:47:46;;;;;;;3.10;2.70;;;;;;;13.42;86.93;99132.07;1436621;91;21483;-78
2022/09/28 07:50:12;;;;;;;5.67;3.20;;;;;;;13.41;85.21;99137.60;1435202;91;21541;-78
2022/09/28 07:52:38;;;;;;;8.03;2.80;;;;;;;13.43;84.27;99140.34;1433493;91;21630;-78
2022/09/28 07:55:06;;;;;;;6.10;3.00;;;;;;;13.50;85.54;99129.25;1438409;91;21466;-78
2022/09/28 07:57:32;;;;;;;5.17;2.70;;;;;;;13.60;84.74;99124.07;1429493;91;21348;-78
2022/09/28 07:59:59;;;;;;;8.10;2.37;;;;;;;13.66;83.65;99126.74;1434178;91;21400;-78
2022/09/28 08:02:25;;;;;;;13.43;4.23;;;;;;;13.77;84.12;99125.35;1443235;91;21348;-78
2022/09/28 08:04:51;;;;;;;9.97;3.27;;;;;;;13.89;83.95;99125.08;1444049;91;21386;-77
2022/09/28 08:07:18;;;;;;;4.37;2.70;;;;;;;13.96;81.96;99124.59;1433293;91;22732;-77
2022/09/28 08:09:45;;;;;;;4.23;3.17;;;;;;;14.06;82.58;99119.39;1433201;91;21505;-77
2022/09/28 08:12:13;;;;;;;4.00;3.13;;;;;;;14.16;79.71;99121.16;1430591;91;22341;-78
2022/09/28 08:14:39;;;;;;;5.70;3.57;;;;;;;14.19;79.09;99124.75;1438105;91;22510;-78
2022/09/28 08:17:06;;;;;;;3.53;3.00;;;;;;;14.24;79.75;99124.93;1436812;91;21520;-78
2022/09/28 08:22:19;;;;;;;6.83;2.83;;;;;;;14.47;79.91;99133.05;1432846;91;21379;-79
2022/09/28 08:24:46;;;;;;;6.87;4.60;;;;;;;14.57;78.01;99136.97;1436544;91;21364;-78
2022/09/28 08:27:15;;;;;;;10.43;2.90;;;;;;;14.68;78.81;99142.20;1434004;91;21372;-77
2022/09/28 08:29:42;;;;;;;6.60;2.70;;;;;;;14.79;78.16;99141.59;1438323;91;21400;-78
2022/09/28 08:32:09;;;;;;;3.43;2.63;;;;;;;14.95;77.92;99137.66;1427139;91;21556;-76
2022/09/28 08:34:36;;;;;;;3.43;2.63;;;;;;;15.11;77.64;99138.56;1417468;91;22199;-78
2022/09/28 08:37:05;;;;;;;3.53;1.97;;;;;;;15.24;74.89;99139.55;1427018;91;23423;-78
2022/09/28 08:39:33;;;;;;;2.13;1.70;;;;;;;15.26;73.86;99136.98;1424350;91;21386;-77
2022/09/28 08:42:16;;;;;;;2.20;1.87;;;;;;;15.37;74.18;99137.38;1425302;91;21453;-77
2022/09/28 08:44:46;;;;;;;4.00;1.80;;;;;;;15.52;73.81;99129.93;1421574;91;21407;-78
2022/09/28 08:50:30;;;;;;;4.80;1.50;;;;;;;15.63;69.04;99129.27;1423527;91;20978;-80
2022/09/28 08:53:05;;;;;;;2.33;1.75;;;;;;;15.68;69.90;99130.83;1419061;91;21507;-79
2022/09/28 08:55:36;;;;;;;1.30;1.20;;;;;;;15.76;69.05;99131.89;1415821;91;21438;-80
2022/09/28 08:58:16;;;;;;;3.97;2.03;;;;;;;15.85;67.40;99130.31;1417395;91;21511;-81
2022/09/28 09:00:50;;;;;;;2.53;1.30;;;;;;;15.87;66.00;99134.93;1425335;91;21649;-82
2022/09/28 09:03:33;;;;;;;4.67;1.40;;;;;;;15.85;65.18;99138.32;1429542;91;21512;-79
2022/09/28 09:06:19;;;;;;;3.67;1.47;;;;;;;15.91;66.82;99132.13;1417456;91;22243;-83
2022/09/28 09:09:19;;;;;;;1.93;1.23;;;;;;;16.05;65.18;99127.53;1430455;91;21678;-82
2022/09/28 09:12:13;;;;;;;5.77;1.20;;;;;;;16.13;65.83;99128.62;1420621;91;22568;-83
2022/09/28 09:15:28;;;;;;;4.10;1.60;;;;;;;16.14;62.54;99128.91;1423194;91;22040;-82
2022/09/28 09:18:23;;;;;;;1.27;0.93;;;;;;;16.29;65.32;99125.97;1412810;91;21438;-78
2022/09/28 09:21:01;;;;;;;1.37;0.97;;;;;;;16.51;65.33;99132.55;1420012;91;21415;-81
2022/09/28 09:23:38;;;;;;;6.03;1.60;;;;;;;16.56;61.38;99128.72;1418333;91;21985;-81
2022/09/28 09:26:17;;;;;;;2.10;1.17;;;;;;;16.66;63.72;99139.73;1349461;92;21389;-80
2022/09/28 09:29:22;;;;;;;2.93;1.10;;;;;;;16.74;62.74;99136.47;1500814;91;21317;-81
2022/09/28 09:32:02;;;;;;;0.97;0.80;;;;;;;16.81;62.14;99133.27;1505731;91;21180;-82
2022/09/28 09:34:52;;;;;;;0.97;0.70;;;;;;;16.96;59.56;99144.42;1368125;91;22280;-82
2022/09/28 09:37:36;;;;;;;1.50;1.05;;;;;;;17.03;61.00;99146.53;1426332;91;21342;-81
2022/09/28 09:40:25;;;;;;;0.75;0.70;;;;;;;17.18;55.63;99150.18;1441480;91;21349;-81
2022/09/28 09:43:38;;;;;;;0.70;0.60;;;;;;;17.28;57.14;99145.13;1436136;91;21461;-82
2022/09/28 09:46:15;;;;;;;0.87;0.80;;;;;;;17.45;58.64;99142.67;1424997;91;21482;-83
2022/09/28 09:49:19;;;;;;;4.10;0.75;;;;;;;17.63;56.58;99146.38;1402331;91;21512;-83
2022/09/28 09:52:16;;;;;;;1.10;0.70;;;;;;;17.68;54.60;99139.84;1438049;91;21888;-83
2022/09/28 09:54:56;;;;;;;4.10;0.60;;;;;;;17.86;56.97;99122.43;1435322;91;21380;-83
2022/09/28 09:57:38;;;;;;;2.90;0.80;;;;;;;18.11;56.16;99124.16;1434720;91;21555;-84
2022/09/28 10:00:14;;;;;;;1.77;1.12;;;;;;;18.15;52.99;99125.33;1425536;91;21393;-81
2022/09/28 10:02:44;;;;;;;2.00;0.90;;;;;;;18.08;52.50;99117.92;1438202;91;22399;-81
2022/09/28 10:05:18;;;;;;;4.73;0.93;;;;;;;18.16;53.17;99120.28;1430347;91;21488;-82
2022/09/28 10:08:09;;;;;;;1.20;0.60;;;;;;;18.16;52.28;99118.95;1443796;91;22208;-83
2022/09/28 10:10:47;;;;;;;1.40;0.50;;;;;;;18.20;51.19;99126.80;1432224;91;22098;-83
2022/09/28 10:13:14;;;;;;;1.62;1.05;;;;;;;18.32;52.94;99122.28;1426815;91;22392;-83
2022/09/28 10:15:42;;;;;;;2.42;0.70;;;;;;;18.38;49.33;99122.70;1437172;91;21601;-83
2022/09/28 10:18:15;;;;;;;0.93;0.68;;;;;;;18.35;51.76;99115.13;1433155;91;21336;-83
2022/09/28 10:20:46;;;;;;;1.40;0.82;;;;;;;18.47;52.96;99122.67;1437955;91;22894;-82
2022/09/28 10:23:22;;;;;;;2.83;0.72;;;;;;;18.57;51.99;99132.00;1426574;91;21429;-83
2022/09/28 10:25:51;;;;;;;1.65;0.78;;;;;;;18.66;52.48;99138.65;1435420;91;21571;-82
2022/09/28 10:28:23;;;;;;;2.50;1.20;;;;;;;18.68;52.39;99143.27;1438707;91;21608;-83
2022/09/28 10:30:49;;;;;;;6.00;1.70;;;;;;;18.49;52.19;99148.69;1433818;91;22378;-83
2022/09/28 10:33:32;;;;;;;1.92;0.93;;;;;;;18.47;51.48;99151.30;1418225;91;21400;-83
2022/09/28 10:36:01;;;;;;;2.33;1.30;;;;;;;18.24;51.51;99148.89;1434691;91;21424;-83
2022/09/28 10:38:29;;;;;;;3.22;0.70;;;;;;;18.06;50.48;99144.09;1435296;91;22346;-85
2022/09/28 10:41:01;;;;;;;5.33;1.40;;;;;;;18.00;51.92;99143.95;1435039;91;21453;-82
2022/09/28 10:43:40;;;;;;;1.65;0.80;;;;;;;18.09;52.32;99147.13;1430633;91;22244;-86
2022/09/28 10:46:22;;;;;;;2.05;0.82;;;;;;;18.18;52.16;99146.28;1431934;91;22479;-88
2022/09/28 10:49:09;;;;;;;4.75;1.10;;;;;;;18.17;50.53;99150.02;1439541;91;22267;-87
2022/09/28 10:51:53;;;;;;;1.22;0.62;;;;;;;18.10;52.60;99151.98;1434835;91;22301;-85
2022/09/28 10:54:24;;;;;;;3.52;0.80;;;;;;;18.27;53.38;99151.63;1433818;91;21290;-84
2022/09/28 10:56:53;;;;;;;1.82;1.05;;;;;;;18.46;53.01;99150.49;1433815;91;21290;-83
2022/09/28 10:59:30;;;;;;;3.95;0.90;;;;;;;18.62;51.04;99144.19;1439476;91;22383;-85
2022/09/28 11:02:23;;;;;;;3.87;0.80;;;;;;;18.76;51.55;99140.28;1425674;91;22436;-84
2022/09/28 11:04:56;;;;;;;0.70;0.70;;;;;;;18.96;49.85;99148.47;1427954;91;22532;-84
2022/09/28 11:07:32;;;;;;;0.70;0.70;;;;;;;19.07;48.69;99148.47;1436974;91;22281;-85
2022/09/28 11:10:00;;;;;;;0.88;0.60;;;;;;;19.16;48.97;99151.11;1434927;91;21364;-84
2022/09/28 11:12:38;;;;;;;1.37;0.68;;;;;;;19.20;48.73;99144.74;1436291;91;21430;-85
2022/09/28 11:15:07;;;;;;;3.22;0.50;;;;;;;19.43;48.69;99143.08;1434392;91;21409;-84
2022/09/28 11:17:40;;;;;;;0.85;0.42;;;;;;;19.63;47.61;99144.84;1434940;91;21372;-84
2022/09/28 11:20:24;;;;;;;3.80;0.50;;;;;;;19.77;45.99;99140.86;1429177;91;21515;-85
2022/09/28 11:23:19;;;;;;;0.60;0.60;;;;;;;19.80;44.36;99141.72;1435286;91;22274;-84
2022/09/28 11:25:59;;;;;;;2.12;0.50;;;;;;;19.91;45.88;99141.39;1439143;91;21504;-84
2022/09/28 11:28:32;;;;;;;2.22;0.80;;;;;;;20.23;46.67;99142.23;1432707;91;21460;-85
2022/09/28 11:31:00;;;;;;;3.05;1.27;;;;;;;20.52;44.61;99147.02;1440367;91;21386;-85
2022/09/28 11:33:37;;;;;;;0.90;0.60;;;;;;;20.60;44.04;99137.25;1435954;91;21393;-85
2022/09/28 11:36:18;;;;;;;2.12;0.90;;;;;;;20.60;44.04;99137.25;1430902;91;21334;-86
2022/09/28 11:39:11;;;;;;;3.33;1.07;;;;;;;20.76;44.49;99140.17;1413124;91;21534;-85
2022/09/28 11:41:49;;;;;;;3.25;0.80;;;;;;;20.91;43.54;99149.27;1433537;91;22252;-84
2022/09/28 11:44:43;;;;;;;3.98;0.50;;;;;;;20.96;42.56;99145.84;1432622;91;21393;-84
2022/09/28 11:47:21;;;;;;;0.55;0.50;;;;;;;21.12;43.87;99145.02;1437317;91;21401;-84
2022/09/28 11:49:59;;;;;;;1.35;0.35;;;;;;;21.27;43.66;99142.25;1437594;91;21474;-84
2022/09/28 11:52:43;;;;;;;1.77;0.50;;;;;;;21.31;42.25;99154.94;1431638;91;21401;-85
2022/09/28 11:55:20;;;;;;;3.12;0.30;;;;;;;21.38;42.73;99145.39;1430143;91;21501;-85
2022/09/28 11:57:51;;;;;;;0.60;0.60;;;;;;;21.42;42.26;99146.52;1433304;91;21415;-88
2022/09/28 12:00:24;;;;;;;1.37;0.60;;;;;;;21.29;39.83;99150.36;1440742;91;21512;-84
2022/09/28 12:02:55;;;;;;;1.65;0.70;;;;;;;21.33;40.59;99146.09;1431278;91;21569;-84
2022/09/28 12:05:30;;;;;;;2.35;0.53;;;;;;;21.53;40.84;99149.62;1438543;91;21408;-85
2022/09/28 12:08:10;;;;;;;1.20;0.60;;;;;;;21.76;41.05;99145.04;1435987;91;21616;-83
2022/09/28 12:11:03;;;;;;;3.00;0.70;;;;;;;21.97;41.27;99142.84;1439590;91;21563;-83